UWOO

Orenburg Central Airport

Orenburg, Russian Federation
TAF AMD UWOO 170436Z 1704/1803 13008G13MPS 3100 -SN BLSN BKN011 TXM03/1710Z TNM14/1803Z TEMPO 1704/1715 14005G10MPS 1000 FZRA SN OVC004 TEMPO 1715/1803 36003MPS 0300 FZFG VV002
Issued Valid From Valid To
Jan-17 @ 04:36 UTC
(16 minutes ago)
Jan-17 @ 04:00 UTC
(52 minutes ago)
Jan-18 @ 03:00 UTC
(in 22 hours)
Jan-17 @ 04:00 to Jan-18 @ 03:00
TAF AMD UWOO 170436Z 1704/1803 13008G13MPS 3100 -SN BLSN BKN011 TXM03/1710Z TNM14/1803Z
Wind Visibility Clouds Conditions
130° at 16 knots
 Gusting to 25 knots
3,106 meters
  • Broken at 1,100' AGL
  • Light Snow
  • Blowing
  • Snow
Temporary Jan-17 @ 04:00 to Jan-17 @ 15:00
TEMPO 1704/1715 14005G10MPS 1000 FZRA SN OVC004
Wind Visibility Clouds Conditions
140° at 10 knots
 Gusting to 19 knots
998 meters
  • Overcast at 400' AGL
  • Freezing
  • Rain
  • Snow
Temporary Jan-17 @ 15:00 to Jan-18 @ 03:00
TEMPO 1715/1803 36003MPS 0300 FZFG VV002
Wind Visibility Clouds Conditions
360° at 6 knots 306 meters
  • Vertical visibility at 200' AGL
  • Freezing
  • Fog
TAF AMD UWOO 170436Z 1704/1803 13008G13MPS 3100 -SN BLSN BKN011 TXM03/1710Z TNM14/1803Z TEMPO 1704/1715 14005G10MPS 1000 FZRA SN OVC004 TEMPO 1715/1803 36003MPS 0300 FZFG VV002
Issued Jan-17 @ 04:36 UTC
(16 minutes ago)
Valid From Jan-17 @ 04:00 UTC
(52 minutes ago)
Valid To Jan-18 @ 03:00 UTC
(in 22 hours)
Jan-17 @ 04:00 - Jan-18 @ 03:00
Wind Visibility
130° at 16 knots
 Gusting to 25 knots
3,106 meters
Clouds
  • Broken at 1,100' AGL
Conditions
  • Light Snow
  • Blowing
  • Snow
Temporary Jan-17 @ 04:00 - Jan-17 @ 15:00
Wind Visibility
140° at 10 knots
 Gusting to 19 knots
998 meters
Clouds
  • Overcast at 400' AGL
Conditions
  • Freezing
  • Rain
  • Snow
Temporary Jan-17 @ 15:00 - Jan-18 @ 03:00
Wind Visibility
360° at 6 knots 306 meters
Clouds
  • Vertical visibility at 200' AGL
Conditions
  • Freezing
  • Fog